Time;durP1;ratioP1;P1;durP2;ratioP2;P2;SDS_P1;SDS_P2;PMS_P1;PMS_P2;Temp;Humidity;BMP_temperature;BMP_pressure;BME280_temperature;BME280_humidity;BME280_pressure;Samples;Min_cycle;Max_cycle;Signal;HPM_P1;HPM_P2
2023/06/01 00:10:02;;;;;;;11.80;6.00;;;;;;;8.93;61.73;99662.50;436795;1253;140059;-63
2023/06/01 00:20:10;;;;;;;8.80;5.60;;;;;;;8.81;62.07;99655.36;436643;1251;140240;-63
2023/06/01 00:30:16;;;;;;;7.60;4.70;;;;;;;8.71;62.46;99652.23;437240;1251;140460;-64
2023/06/01 00:40:22;;;;;;;9.00;6.40;;;;;;;8.61;62.72;99645.45;436936;1252;139384;-64
2023/06/01 00:50:29;;;;;;;9.90;6.90;;;;;;;8.47;63.01;99643.52;436363;1251;139091;-63
2023/06/01 01:00:35;;;;;;;7.30;4.80;;;;;;;8.36;63.44;99639.41;436290;1251;139931;-62
2023/06/01 01:10:52;;;;;;;6.10;4.70;;;;;;;8.28;63.44;99635.84;436441;1251;138972;-63
2023/06/01 01:21:01;;;;;;;8.30;6.00;;;;;;;8.19;63.90;99627.59;436403;1251;140873;-64
2023/06/01 01:31:12;;;;;;;6.90;4.80;;;;;;;8.11;64.17;99618.59;436344;1253;139646;-64
2023/06/01 01:41:18;;;;;;;9.00;4.80;;;;;;;8.05;64.31;99616.33;436831;1251;140650;-63
2023/06/01 01:51:28;;;;;;;7.90;4.90;;;;;;;7.95;64.34;99605.00;436483;1251;140040;-64
2023/06/01 02:01:34;;;;;;;9.20;5.60;;;;;;;7.85;64.96;99600.27;436446;1252;139267;-63
2023/06/01 02:11:41;;;;;;;8.10;5.30;;;;;;;7.74;65.20;99595.94;436668;1250;139515;-64
2023/06/01 02:21:46;;;;;;;7.90;5.10;;;;;;;7.66;65.35;99595.16;436456;1251;138886;-64
2023/06/01 02:31:53;;;;;;;17.10;6.80;;;;;;;7.63;65.84;99592.02;436618;1253;139895;-64
2023/06/01 02:41:59;;;;;;;10.30;5.20;;;;;;;7.69;65.89;99584.36;437612;1251;139660;-64
2023/06/01 02:52:05;;;;;;;9.00;4.90;;;;;;;7.89;66.14;99573.41;437089;1251;139945;-64
2023/06/01 03:02:11;;;;;;;17.40;5.90;;;;;;;8.31;65.87;99569.23;436860;1253;139158;-64
2023/06/01 03:12:16;;;;;;;7.80;5.70;;;;;;;10.72;64.83;99564.39;436592;1250;139104;-64
2023/06/01 03:22:22;;;;;;;13.50;5.10;;;;;;;14.02;59.21;99564.45;436575;1251;139002;-63
2023/06/01 03:32:28;;;;;;;16.60;5.30;;;;;;;14.09;55.27;99559.98;436706;1253;139388;-64
2023/06/01 03:42:34;;;;;;;14.00;5.30;;;;;;;13.42;55.18;99561.95;436482;1251;140502;-65
2023/06/01 03:52:40;;;;;;;14.20;5.30;;;;;;;13.42;55.08;99555.96;437047;1251;138448;-64
2023/06/01 04:02:49;;;;;;;8.80;4.60;;;;;;;14.97;54.06;99548.48;437203;1251;139588;-63
2023/06/01 04:12:55;;;;;;;13.80;5.70;;;;;;;19.69;49.29;99535.05;436838;1253;139213;-64
2023/06/01 04:23:01;;;;;;;18.00;5.60;;;;;;;23.63;43.58;99516.23;436646;1254;139034;-64
2023/06/01 04:33:06;;;;;;;17.80;6.80;;;;;;;26.57;39.06;99509.30;436733;1253;139690;-63
2023/06/01 04:43:13;;;;;;;11.70;5.20;;;;;;;30.97;33.97;99489.33;436773;1253;138553;-64
2023/06/01 04:53:19;;;;;;;10.50;5.10;;;;;;;34.22;29.26;99476.89;437186;1251;139962;-65
2023/06/01 05:03:25;;;;;;;21.60;4.70;;;;;;;36.96;25.49;99475.52;437158;1251;138445;-64
2023/06/01 05:13:31;;;;;;;9.10;4.60;;;;;;;39.14;22.72;99467.57;436393;1253;139467;-65
2023/06/01 05:23:37;;;;;;;10.10;4.60;;;;;;;41.23;20.53;99459.33;436439;1256;138802;-64
2023/06/01 05:33:43;;;;;;;6.30;3.80;;;;;;;43.65;18.65;99452.66;436473;1254;139358;-63
2023/06/01 05:43:50;;;;;;;12.90;5.20;;;;;;;45.45;17.06;99453.73;436390;1254;139058;-64
2023/06/01 05:53:56;;;;;;;7.20;4.10;;;;;;;45.69;16.24;99448.30;437039;1253;139093;-64
2023/06/01 06:04:02;;;;;;;10.20;5.10;;;;;;;47.02;15.21;99435.45;436966;1253;138886;-65
2023/06/01 06:14:11;;;;;;;6.00;3.90;;;;;;;49.23;14.17;99431.77;437118;1256;139153;-65
2023/06/01 06:24:17;;;;;;;14.50;4.10;;;;;;;50.83;13.29;99430.20;437178;1255;138889;-63
2023/06/01 06:34:24;;;;;;;6.70;3.90;;;;;;;52.74;12.35;99424.42;436325;1256;138701;-64
2023/06/01 06:44:30;;;;;;;6.80;4.60;;;;;;;54.55;11.34;99427.11;436327;1256;138338;-64
2023/06/01 06:54:36;;;;;;;5.90;5.40;;;;;;;55.23;10.35;99424.32;436463;1254;139498;-63
2023/06/01 07:04:42;;;;;;;6.40;5.80;;;;;;;55.69;9.85;99423.73;436385;1255;138256;-61
2023/06/01 07:14:48;;;;;;;9.40;8.80;;;;;;;56.65;9.53;99412.17;436143;1257;138964;-63
2023/06/01 07:24:56;;;;;;;10.80;9.90;;;;;;;56.92;8.82;99405.52;436445;1251;154592;-63
2023/06/01 07:35:04;;;;;;;5.80;5.50;;;;;;;54.31;8.83;99399.63;436385;1255;139070;-63
2023/06/01 07:45:13;;;;;;;3.70;3.00;;;;;;;53.05;9.27;99383.91;436572;1255;138310;-63
2023/06/01 07:55:19;;;;;;;4.70;1.70;;;;;;;50.65;9.37;99372.36;436726;1254;138524;-63
2023/06/01 08:05:25;;;;;;;3.40;1.70;;;;;;;39.67;12.45;99374.20;436502;1254;139124;-65
2023/06/01 08:15:32;;;;;;;3.00;1.40;;;;;;;33.57;15.74;99379.00;437647;1254;138480;-63
2023/06/01 08:25:38;;;;;;;1.90;1.60;;;;;;;30.89;17.90;99384.52;436305;1254;139385;-63
2023/06/01 08:35:43;;;;;;;5.80;1.70;;;;;;;29.74;19.38;99374.41;436266;1251;138949;-64
2023/06/01 08:45:51;;;;;;;7.00;1.90;;;;;;;28.87;20.63;99365.95;436429;1251;138651;-64
2023/06/01 08:55:58;;;;;;;5.20;1.90;;;;;;;28.70;21.33;99351.89;436704;1251;139215;-66
2023/06/01 09:06:05;;;;;;;2.00;1.50;;;;;;;28.64;21.83;99335.55;436587;1254;138306;-64
2023/06/01 09:16:12;;;;;;;1.70;1.40;;;;;;;28.40;21.96;99323.23;436662;1251;138689;-63
2023/06/01 09:26:26;;;;;;;6.40;1.30;;;;;;;28.15;22.01;99316.36;436759;1251;138894;-64
2023/06/01 09:36:33;;;;;;;5.60;1.10;;;;;;;27.93;22.23;99310.77;436378;1254;139456;-64
2023/06/01 09:46:49;;;;;;;11.30;1.70;;;;;;;27.72;21.79;99302.92;436939;1254;138407;-63
2023/06/01 09:56:56;;;;;;;3.10;1.40;;;;;;;27.42;21.95;99305.55;436593;1251;140458;-63
2023/06/01 10:07:17;;;;;;;3.00;1.30;;;;;;;26.83;22.36;99290.41;436327;1251;139525;-63
2023/06/01 10:17:23;;;;;;;7.90;1.80;;;;;;;26.68;22.97;99284.61;436879;1254;138821;-63
2023/06/01 10:27:36;;;;;;;8.50;1.40;;;;;;;26.53;23.34;99279.10;437968;1251;139369;-65
2023/06/01 10:37:42;;;;;;;2.40;1.00;;;;;;;26.40;23.44;99274.20;436114;1253;139317;-63
2023/06/01 10:47:49;;;;;;;8.00;2.00;;;;;;;26.10;23.80;99267.09;436568;1251;138888;-64
2023/06/01 10:58:25;;;;;;;10.90;2.20;;;;;;;25.97;24.02;99258.79;439037;1251;139435;-64
2023/06/01 11:08:53;;;;;;;1.30;1.00;;;;;;;25.91;24.43;99243.77;436733;1251;138907;-64
2023/06/01 11:19:02;;;;;;;16.70;2.90;;;;;;;25.81;24.70;99228.31;436613;1251;139250;-64
2023/06/01 11:29:16;;;;;;;1.70;1.50;;;;;;;25.82;24.54;99222.96;436837;1251;139668;-69
2023/06/01 11:39:24;;;;;;;3.20;1.50;;;;;;;25.96;24.31;99218.83;437176;1251;139350;-64
2023/06/01 11:49:30;;;;;;;74.40;9.70;;;;;;;26.05;24.67;99205.52;436924;1250;139135;-64
2023/06/01 11:59:41;;;;;;;3.90;1.60;;;;;;;25.97;25.14;99189.03;436571;1253;138683;-64
2023/06/01 12:09:48;;;;;;;5.90;2.00;;;;;;;25.95;25.09;99178.07;436853;1250;139301;-64
2023/06/01 12:19:53;;;;;;;4.30;2.40;;;;;;;25.84;25.09;99171.67;437243;1250;138390;-64
2023/06/01 12:29:59;;;;;;;6.90;2.60;;;;;;;25.66;25.34;99164.53;436821;1251;138992;-65
2023/06/01 12:40:06;;;;;;;8.50;2.30;;;;;;;25.84;25.34;99162.52;436993;1251;140388;-64
2023/06/01 12:50:14;;;;;;;8.00;2.80;;;;;;;25.85;25.19;99151.16;436954;1251;139266;-65
2023/06/01 13:00:21;;;;;;;7.80;2.90;;;;;;;25.80;25.09;99142.98;437532;1251;138763;-65
2023/06/01 13:10:35;;;;;;;4.30;2.00;;;;;;;25.79;25.51;99133.33;436841;1253;139906;-65
2023/06/01 13:20:41;;;;;;;4.00;2.20;;;;;;;25.75;25.31;99126.26;436967;1251;138443;-66
2023/06/01 13:30:47;;;;;;;4.30;2.20;;;;;;;25.65;25.55;99119.08;436972;1251;138843;-65
2023/06/01 13:40:53;;;;;;;3.60;1.70;;;;;;;25.55;25.87;99113.31;437224;1250;140893;-65
2023/06/01 13:50:59;;;;;;;4.80;1.70;;;;;;;25.54;25.87;99108.73;437401;1253;139993;-64
2023/06/01 14:01:06;;;;;;;12.10;3.00;;;;;;;25.55;25.96;99100.98;436785;1253;139118;-64
2023/06/01 14:11:11;;;;;;;5.70;2.20;;;;;;;25.52;25.74;99089.83;436708;1253;140177;-65
2023/06/01 14:21:17;;;;;;;7.30;2.50;;;;;;;25.51;25.96;99082.67;436712;1253;138912;-65
2023/06/01 14:31:23;;;;;;;7.40;2.50;;;;;;;25.48;25.58;99079.34;436559;1253;138601;-65
2023/06/01 14:41:29;;;;;;;5.10;1.90;;;;;;;25.40;25.37;99076.38;436666;1250;139477;-65
2023/06/01 14:51:36;;;;;;;7.20;2.30;;;;;;;25.33;25.30;99065.02;436760;1253;138456;-65
2023/06/01 15:01:43;;;;;;;3.40;2.00;;;;;;;25.22;25.21;99066.14;436990;1253;139661;-65
2023/06/01 15:11:49;;;;;;;7.30;2.20;;;;;;;25.16;25.49;99059.15;436687;1253;138963;-63
2023/06/01 15:21:56;;;;;;;4.80;2.50;;;;;;;25.10;25.34;99057.70;436909;1250;139154;-63
2023/06/01 15:32:03;;;;;;;13.60;3.00;;;;;;;25.03;25.43;99048.02;436856;1253;138899;-65
2023/06/01 15:42:11;;;;;;;6.80;2.40;;;;;;;24.94;25.56;99046.01;436637;1253;139849;-65
2023/06/01 15:52:16;;;;;;;6.70;2.60;;;;;;;24.86;26.04;99036.39;436909;1253;138885;-64
2023/06/01 16:02:22;;;;;;;4.90;2.50;;;;;;;24.77;26.18;99024.59;436675;1251;138870;-64
2023/06/01 16:12:28;;;;;;;7.00;2.70;;;;;;;24.72;26.53;99022.17;436743;1253;138946;-65
2023/06/01 16:22:35;;;;;;;4.60;2.60;;;;;;;24.65;26.86;99017.38;437246;1253;140470;-64
2023/06/01 16:32:41;;;;;;;4.70;2.10;;;;;;;24.54;27.33;99014.23;436959;1251;139266;-62
2023/06/01 16:42:47;;;;;;;3.00;1.70;;;;;;;24.47;27.90;99004.52;436874;1251;138882;-64
2023/06/01 16:52:53;;;;;;;5.70;2.90;;;;;;;24.64;28.21;98999.63;436151;1253;139386;-65
2023/06/01 17:02:59;;;;;;;8.20;2.20;;;;;;;24.34;28.96;98996.31;442891;1250;139866;-64
2023/06/01 17:13:05;;;;;;;4.10;3.20;;;;;;;24.04;29.43;98984.25;436166;1251;139788;-63
2023/06/01 17:23:11;;;;;;;6.60;2.80;;;;;;;23.86;30.03;98985.30;436557;1251;138829;-64
2023/06/01 17:33:17;;;;;;;4.00;1.90;;;;;;;23.54;30.63;98982.88;436535;1251;138677;-64
2023/06/01 17:43:23;;;;;;;3.40;2.00;;;;;;;23.24;31.43;98985.15;436610;1253;140146;-65
2023/06/01 17:53:29;;;;;;;6.60;2.30;;;;;;;23.17;32.40;98990.77;436887;1253;138908;-64
2023/06/01 18:03:46;;;;;;;14.20;2.60;;;;;;;22.62;33.18;98995.17;436825;1251;138611;-64
2023/06/01 18:13:52;;;;;;;5.30;2.00;;;;;;;21.90;34.12;98997.95;436591;1251;139236;-64
2023/06/01 18:23:58;;;;;;;7.00;2.80;;;;;;;21.42;34.65;99006.34;436770;1251;139097;-65
2023/06/01 18:34:04;;;;;;;8.10;2.60;;;;;;;20.97;35.20;99016.06;437328;1253;140088;-64
2023/06/01 18:44:09;;;;;;;8.90;2.70;;;;;;;20.52;35.58;99016.19;436892;1251;138596;-64
2023/06/01 18:54:16;;;;;;;3.20;2.90;;;;;;;20.09;36.19;99028.45;436759;1250;138853;-65
2023/06/01 19:04:22;;;;;;;4.90;3.80;;;;;;;19.72;36.93;99039.14;437129;1251;138564;-65
2023/06/01 19:14:28;;;;;;;5.30;3.00;;;;;;;19.37;37.65;99049.73;436124;1253;138900;-63
2023/06/01 19:24:35;;;;;;;5.30;3.40;;;;;;;19.05;38.20;99055.14;436326;1251;139463;-64
2023/06/01 19:34:42;;;;;;;4.40;2.80;;;;;;;18.77;38.60;99059.37;437107;1253;138872;-63
2023/06/01 19:44:48;;;;;;;5.40;3.30;;;;;;;18.52;38.91;99064.22;436822;1253;138701;-64
2023/06/01 19:54:57;;;;;;;6.10;2.90;;;;;;;18.22;39.46;99067.86;436416;1253;140075;-64
2023/06/01 20:05:08;;;;;;;5.10;3.70;;;;;;;18.00;40.35;99072.80;436884;1251;138622;-64
2023/06/01 20:15:14;;;;;;;7.10;4.80;;;;;;;17.79;41.01;99072.69;436689;1251;139649;-65
2023/06/01 20:25:23;;;;;;;10.10;4.90;;;;;;;17.60;41.64;99077.59;436763;1251;140647;-63
2023/06/01 20:35:29;;;;;;;6.80;4.00;;;;;;;17.36;42.28;99086.81;436630;1251;139281;-64
2023/06/01 20:45:57;;;;;;;7.00;4.00;;;;;;;17.14;43.64;99095.21;436782;1253;138457;-64
2023/06/01 20:56:03;;;;;;;6.80;3.40;;;;;;;16.86;45.26;99103.62;436962;1251;138816;-64
2023/06/01 21:06:10;;;;;;;7.40;3.60;;;;;;;16.55;46.52;99104.16;437275;1251;138856;-64
2023/06/01 21:16:16;;;;;;;6.50;3.50;;;;;;;16.23;47.61;99110.01;436762;1250;139396;-64
2023/06/01 21:26:23;;;;;;;3.60;3.30;;;;;;;15.97;48.80;99112.08;436395;1253;138253;-64
2023/06/01 21:36:29;;;;;;;6.50;3.70;;;;;;;15.69;49.85;99114.09;436444;1253;139006;-65
2023/06/01 21:46:35;;;;;;;5.10;4.50;;;;;;;15.42;50.63;99122.75;436636;1251;139062;-65
2023/06/01 21:56:41;;;;;;;5.40;3.60;;;;;;;15.16;51.44;99134.62;436389;1253;139126;-66
2023/06/01 22:06:47;;;;;;;9.00;4.20;;;;;;;14.90;52.23;99135.70;436201;1251;139293;-66
2023/06/01 22:16:53;;;;;;;6.70;4.70;;;;;;;14.64;52.87;99139.02;436625;1251;138883;-64
2023/06/01 22:26:59;;;;;;;9.40;4.50;;;;;;;14.41;53.64;99148.20;436550;1253;139583;-66
2023/06/01 22:37:06;;;;;;;7.10;4.70;;;;;;;14.20;54.38;99150.21;436536;1251;138878;-65
2023/06/01 22:47:13;;;;;;;8.90;4.10;;;;;;;13.99;55.03;99151.44;436730;1253;139839;-67
2023/06/01 22:57:18;;;;;;;8.40;5.10;;;;;;;13.79;55.74;99152.27;437326;1250;139059;-64
2023/06/01 23:07:24;;;;;;;6.70;4.00;;;;;;;13.62;56.48;99154.17;436417;1252;139008;-65
2023/06/01 23:17:32;;;;;;;5.10;4.10;;;;;;;13.45;57.04;99158.34;436422;1253;139155;-64
2023/06/01 23:27:38;;;;;;;8.40;4.30;;;;;;;13.23;57.78;99158.19;436410;1251;140215;-64
2023/06/01 23:37:45;;;;;;;6.30;3.10;;;;;;;13.03;58.54;99162.47;436189;1253;140460;-65
2023/06/01 23:47:51;;;;;;;9.60;4.90;;;;;;;12.84;59.20;99165.61;436810;1253;140717;-63
2023/06/01 23:57:57;;;;;;;7.10;4.30;;;;;;;12.63;60.04;99167.23;436623;1254;139166;-64
